Summerville, SC

2:17 PM EDT on April 26, 2017 (GMT -0400)
Summerville

Weather History for KDYB - March, 2014

Change the Weather History Date:

Tuesday, March 18, 2014

  Actual Average (KCHS) Record (KCHS)
Temperature  
Mean Temperature 40 °F -  
Max Temperature 44 °F 67 °F 90 °F (1963)
Min Temperature 35 °F 44 °F 28 °F (1941)
Degree Days  
Heating Degree Days 26    
Moisture  
Dew Point 40 °F    
Average Humidity 95    
Maximum Humidity 100    
Minimum Humidity 87    
Precipitation  
Precipitation 0.00 in - - ()
Sea Level Pressure  
Sea Level Pressure 29.97 in    
Wind  
Wind Speed 11 mph (North)    
Max Wind Speed 16 mph    
Max Gust Speed 21 mph    
Visibility 9 miles    
Events      
Averages and records for this station are not official NWS values.
T = Trace of Precipitation, MM = Missing Value Source: NWS Daily Summary

Daily Weather History Graph

Daily Weather History Graph

Search for Another Location

Airport or City:

Trip Planner

Search our weather history database for the weather conditions in past years. The results will help you decide how hot, cold, wet, or windy it might be!

Date:

Astronomy

Mar. 18, 2014 Rise Set
Actual Time 7:27 AM EDT 7:31 PM EDT
Civil Twilight 7:02 AM EDT 7:55 PM EDT
Nautical Twilight 6:34 AM EDT 8:24 PM EDT
Astronomical Twilight 6:05 AM EDT 8:53 PM EDT
Moon 9:38 PM EDT (3/18) 8:22 AM EDT (3/18)
Length of Visible Light 12h 53m
Length of Day
12h 03m
Waning Gibbous, 96% of the Moon is Illuminated
Mar 18
Waning Gibbous
Mar 23
Last Quarter
Mar 30
New
Apr 7
First Quarter
Apr 15
Full

Hourly Weather History & Observations

Time (EDT) Temp. Windchill Dew Point Humidity Pressure Visibility Wind Dir Wind Speed Gust Speed Precip Events Conditions
12:15 AM 41.0 °F 33.9 °F 41.0 °F 100% 29.88 in 10.0 mi North 12.7 mph 18.4 mph N/A   Overcast
12:35 AM 41.0 °F 35.8 °F 41.0 °F 100% 29.87 in 10.0 mi North 8.1 mph 17.3 mph N/A   Overcast
12:55 AM 41.0 °F 34.7 °F 41.0 °F 100% 29.86 in 10.0 mi North 10.4 mph - N/A   Overcast
1:15 AM 39.2 °F 32.0 °F 39.2 °F 100% 29.86 in 10.0 mi North 11.5 mph 17.3 mph N/A   Overcast
1:35 AM 39.2 °F 31.2 °F 39.2 °F 100% 29.86 in 7.0 mi North 13.8 mph 18.4 mph N/A   Light Drizzle
1:55 AM 39.2 °F 32.0 °F 39.2 °F 100% 29.85 in 5.0 mi North 11.5 mph 18.4 mph N/A   Overcast
2:15 AM 37.4 °F 28.9 °F 37.4 °F 100% 29.84 in 7.0 mi NNE 13.8 mph - N/A   Light Drizzle
2:35 AM 37.4 °F 29.3 °F 37.4 °F 100% 29.83 in 7.0 mi North 12.7 mph - N/A   Overcast
2:55 AM 37.4 °F 28.2 °F 37.4 °F 100% 29.82 in 10.0 mi North 16.1 mph 20.7 mph N/A   Overcast
3:15 AM 37.4 °F 31.4 °F 37.4 °F 100% 29.86 in 10.0 mi North 8.1 mph - N/A   Overcast
3:35 AM 37.4 °F 31.4 °F 37.4 °F 100% 29.87 in 10.0 mi North 8.1 mph - N/A   Overcast
3:55 AM 37.4 °F 29.3 °F 37.4 °F 100% 29.83 in 10.0 mi North 12.7 mph 18.4 mph N/A   Overcast
4:15 AM 37.4 °F 30.3 °F 37.4 °F 100% 29.84 in 10.0 mi North 10.4 mph 16.1 mph N/A   Light Drizzle
4:35 AM 37.4 °F 28.9 °F 37.4 °F 100% 29.86 in 10.0 mi North 13.8 mph 18.4 mph N/A   Overcast
4:55 AM 37.4 °F 30.3 °F 37.4 °F 100% 29.86 in 10.0 mi North 10.4 mph 18.4 mph N/A   Overcast
5:15 AM 37.4 °F 29.8 °F 37.4 °F 100% 29.85 in 7.0 mi North 11.5 mph 20.7 mph N/A   Overcast
5:35 AM 37.4 °F 29.8 °F 37.4 °F 100% 29.83 in 7.0 mi North 11.5 mph 18.4 mph N/A   Light Drizzle
5:55 AM 35.6 °F 26.6 °F 35.6 °F 100% 29.82 in 10.0 mi North 13.8 mph 17.3 mph N/A   Overcast
6:15 AM 35.6 °F 27.1 °F 35.6 °F 100% 29.82 in 10.0 mi North 12.7 mph 16.1 mph N/A   Overcast
6:35 AM 35.6 °F 26.6 °F 35.6 °F 100% 29.83 in 10.0 mi North 13.8 mph 19.6 mph N/A   Overcast
6:55 AM 37.4 °F 28.9 °F 37.4 °F 100% 29.83 in 10.0 mi North 13.8 mph 18.4 mph N/A   Overcast
7:15 AM 37.4 °F 29.3 °F 37.4 °F 100% 29.83 in 10.0 mi North 12.7 mph 17.3 mph N/A   Overcast
7:35 AM 37.4 °F 28.2 °F 37.4 °F 100% 29.81 in 10.0 mi North 16.1 mph 19.6 mph N/A   Overcast
7:55 AM 37.4 °F 31.4 °F 37.4 °F 100% 29.87 in 10.0 mi North 8.1 mph 16.1 mph N/A   Overcast
8:35 AM 37.4 °F 28.9 °F 37.4 °F 100% 29.89 in 10.0 mi North 13.8 mph 17.3 mph N/A   Overcast
8:55 AM 37.4 °F 29.3 °F 37.4 °F 100% 29.90 in 3.0 mi North 12.7 mph 17.3 mph N/A   Overcast
9:15 AM 37.4 °F 30.3 °F 37.4 °F 100% 29.93 in 2.5 mi North 10.4 mph - N/A   Overcast
9:35 AM 37.4 °F 30.3 °F 37.4 °F 100% 29.95 in 4.0 mi North 10.4 mph - N/A   Overcast
9:55 AM 37.4 °F 31.4 °F 37.4 °F 100% 29.95 in 3.0 mi North 8.1 mph - N/A   Overcast
10:15 AM 37.4 °F 30.8 °F 37.4 °F 100% 29.95 in 2.5 mi North 9.2 mph - N/A   Overcast
10:35 AM 37.4 °F 31.4 °F 37.4 °F 100% 29.97 in 5.0 mi NNW 8.1 mph - N/A   Overcast
10:55 AM 39.2 °F 32.5 °F 39.2 °F 100% 30.00 in 10.0 mi North 10.4 mph - N/A   Overcast
11:15 AM 41.0 °F 34.3 °F 39.2 °F 93% 30.00 in 10.0 mi NNW 11.5 mph - N/A   Overcast
11:35 AM 41.0 °F 34.7 °F 41.0 °F 100% 30.00 in 10.0 mi North 10.4 mph - N/A   Overcast
11:55 AM 41.0 °F 34.7 °F 39.2 °F 93% 30.02 in 10.0 mi NW 10.4 mph - N/A   Overcast
12:15 PM 42.8 °F 37.5 °F 41.0 °F 93% 30.02 in 10.0 mi North 9.2 mph - N/A   Overcast
12:35 PM 42.8 °F 37.0 °F 41.0 °F 93% 30.02 in 10.0 mi North 10.4 mph - N/A   Overcast
12:55 PM 42.8 °F 38.6 °F 41.0 °F 93% 30.02 in 10.0 mi NNW 6.9 mph 17.3 mph N/A   Overcast
1:15 PM 44.6 °F 38.8 °F 41.0 °F 87% 30.01 in 10.0 mi North 11.5 mph - N/A   Overcast
1:35 PM 44.6 °F 39.2 °F 41.0 °F 87% 30.01 in 10.0 mi North 10.4 mph - N/A   Overcast
1:55 PM 44.6 °F 39.7 °F 41.0 °F 87% 30.00 in 10.0 mi NNW 9.2 mph - N/A   Overcast
2:15 PM 44.6 °F 39.7 °F 41.0 °F 87% 30.01 in 10.0 mi NNW 9.2 mph - N/A   Overcast
2:35 PM 44.6 °F 38.4 °F 41.0 °F 87% 30.00 in 10.0 mi North 12.7 mph 16.1 mph N/A   Overcast
2:55 PM 44.6 °F 38.4 °F 41.0 °F 87% 30.01 in 10.0 mi North 12.7 mph 18.4 mph N/A   Overcast
3:15 PM 44.6 °F 39.2 °F 41.0 °F 87% 30.01 in 10.0 mi NNW 10.4 mph 17.3 mph N/A   Overcast
3:35 PM 44.6 °F 39.2 °F 41.0 °F 87% 30.02 in 10.0 mi North 10.4 mph 17.3 mph N/A   Overcast
3:55 PM 44.6 °F 38.4 °F 41.0 °F 87% 30.02 in 10.0 mi NNW 12.7 mph 18.4 mph N/A   Overcast
4:15 PM 44.6 °F 38.4 °F 41.0 °F 87% 30.02 in 10.0 mi North 12.7 mph 19.6 mph N/A   Overcast
4:35 PM 44.6 °F 39.2 °F 41.0 °F 87% 30.01 in 10.0 mi North 10.4 mph 17.3 mph N/A   Overcast
4:55 PM 44.6 °F 39.2 °F 41.0 °F 87% 30.01 in 10.0 mi North 10.4 mph 16.1 mph N/A   Overcast
5:15 PM 44.6 °F 37.8 °F 41.0 °F 87% 30.02 in 10.0 mi North 15.0 mph - N/A   Overcast
5:35 PM 44.6 °F 38.4 °F 41.0 °F 87% 30.02 in 10.0 mi North 12.7 mph - N/A   Overcast
5:55 PM 44.6 °F 39.7 °F 41.0 °F 87% 30.02 in 10.0 mi North 9.2 mph - N/A   Overcast
6:15 PM 44.6 °F 38.8 °F 41.0 °F 87% 30.03 in 10.0 mi North 11.5 mph - N/A   Overcast
6:35 PM 44.6 °F 38.8 °F 41.0 °F 87% 30.03 in 10.0 mi North 11.5 mph - N/A   Overcast
6:55 PM 44.6 °F 38.8 °F 41.0 °F 87% 30.04 in 10.0 mi North 11.5 mph - N/A   Overcast
7:15 PM 44.6 °F 39.2 °F 41.0 °F 87% 30.05 in 10.0 mi North 10.4 mph - N/A   Overcast
7:35 PM 44.6 °F 38.8 °F 41.0 °F 87% 30.06 in 10.0 mi North 11.5 mph 17.3 mph N/A   Overcast
7:55 PM 44.6 °F 40.2 °F 41.0 °F 87% 30.07 in 10.0 mi North 8.1 mph - N/A   Overcast
8:15 PM 44.6 °F 40.2 °F 42.8 °F 93% 30.08 in 10.0 mi North 8.1 mph - N/A   Overcast
8:35 PM 42.8 °F 37.0 °F 41.0 °F 93% 30.09 in 10.0 mi North 10.4 mph - N/A   Overcast
8:55 PM 42.8 °F 38.6 °F 41.0 °F 93% 30.10 in 10.0 mi North 6.9 mph - N/A   Overcast
9:15 PM 42.8 °F 38.0 °F 41.0 °F 93% 30.11 in 10.0 mi North 8.1 mph - N/A   Overcast
9:35 PM 42.8 °F 38.6 °F 41.0 °F 93% 30.12 in 10.0 mi North 6.9 mph - N/A   Overcast
9:55 PM 42.8 °F 38.0 °F 41.0 °F 93% 30.12 in 10.0 mi North 8.1 mph - N/A   Overcast
10:15 PM 42.8 °F 38.0 °F 41.0 °F 93% 30.12 in 10.0 mi North 8.1 mph - N/A   Overcast
10:35 PM 42.8 °F 39.3 °F 41.0 °F 93% 30.12 in 10.0 mi North 5.8 mph - N/A   Overcast
10:55 PM 42.8 °F 39.3 °F 42.8 °F 100% 30.13 in 10.0 mi North 5.8 mph - N/A   Overcast
11:15 PM 42.8 °F 40.1 °F 42.8 °F 100% 30.13 in 10.0 mi North 4.6 mph - N/A   Overcast
11:35 PM 42.8 °F 39.3 °F 42.8 °F 100% 30.14 in 10.0 mi North 5.8 mph - N/A   Overcast
11:55 PM 42.8 °F 40.1 °F 42.8 °F 100% 30.13 in 7.0 mi North 4.6 mph - N/A   Overcast